sensor_id;sensor_type;location;lat;lon;timestamp;pressure;altitude;pressure_sealevel;temperature;humidity
818;BME280;391;51.052;6.954;2023-01-28T00:00:01;102078.69;;;4.96;72.25
818;BME280;391;51.052;6.954;2023-01-28T00:02:07;102087.22;;;4.95;72.45
818;BME280;391;51.052;6.954;2023-01-28T00:04:11;102086.44;;;4.96;72.43
818;BME280;391;51.052;6.954;2023-01-28T00:06:14;102090.69;;;4.95;72.86
818;BME280;391;51.052;6.954;2023-01-28T00:08:18;102091.16;;;4.90;73.15
818;BME280;391;51.052;6.954;2023-01-28T00:10:22;102078.78;;;4.86;72.75
818;BME280;391;51.052;6.954;2023-01-28T00:12:25;102095.53;;;4.91;73.05
818;BME280;391;51.052;6.954;2023-01-28T00:14:30;102092.75;;;4.88;72.43
818;BME280;391;51.052;6.954;2023-01-28T00:16:34;102089.94;;;4.85;73.28
818;BME280;391;51.052;6.954;2023-01-28T00:18:39;102093.38;;;4.85;72.50
818;BME280;391;51.052;6.954;2023-01-28T00:20:42;102088.47;;;4.76;72.45
818;BME280;391;51.052;6.954;2023-01-28T00:22:46;102085.19;;;4.79;73.24
818;BME280;391;51.052;6.954;2023-01-28T00:24:53;102086.22;;;4.81;72.87
818;BME280;391;51.052;6.954;2023-01-28T00:26:56;102092.16;;;4.80;73.15
818;BME280;391;51.052;6.954;2023-01-28T00:28:59;102083.63;;;4.81;73.20
818;BME280;391;51.052;6.954;2023-01-28T00:31:06;102087.78;;;4.79;73.10
818;BME280;391;51.052;6.954;2023-01-28T00:33:11;102079.03;;;4.77;72.85
818;BME280;391;51.052;6.954;2023-01-28T00:35:17;102042.31;;;4.58;72.75
818;BME280;391;51.052;6.954;2023-01-28T00:37:23;102077.00;;;4.73;73.35
818;BME280;391;51.052;6.954;2023-01-28T00:39:27;102076.91;;;4.71;73.12
818;BME280;391;51.052;6.954;2023-01-28T00:41:31;102074.88;;;4.67;73.16
818;BME280;391;51.052;6.954;2023-01-28T00:43:35;102042.72;;;4.41;73.03
818;BME280;391;51.052;6.954;2023-01-28T00:45:38;102064.63;;;4.57;73.09
818;BME280;391;51.052;6.954;2023-01-28T00:47:42;102080.03;;;4.56;73.35
818;BME280;391;51.052;6.954;2023-01-28T00:49:46;102069.50;;;4.53;73.60
818;BME280;391;51.052;6.954;2023-01-28T00:51:51;102070.25;;;4.52;73.59
818;BME280;391;51.052;6.954;2023-01-28T00:53:54;102069.25;;;4.50;72.89
818;BME280;391;51.052;6.954;2023-01-28T00:55:58;102073.53;;;4.49;73.35
818;BME280;391;51.052;6.954;2023-01-28T00:58:01;102066.31;;;4.45;72.94
818;BME280;391;51.052;6.954;2023-01-28T01:00:06;101957.25;;;3.68;73.01
818;BME280;391;51.052;6.954;2023-01-28T01:02:10;102061.25;;;4.23;73.93
818;BME280;391;51.052;6.954;2023-01-28T01:04:19;102072.81;;;4.28;73.10
818;BME280;391;51.052;6.954;2023-01-28T01:06:29;102062.16;;;4.36;73.24
818;BME280;391;51.052;6.954;2023-01-28T01:08:35;102060.34;;;4.35;73.61
818;BME280;391;51.052;6.954;2023-01-28T01:10:41;102064.59;;;4.34;73.17
818;BME280;391;51.052;6.954;2023-01-28T01:12:45;102063.28;;;4.39;72.82
818;BME280;391;51.052;6.954;2023-01-28T01:14:48;102078.00;;;4.40;73.19
818;BME280;391;51.052;6.954;2023-01-28T01:16:52;102078.78;;;4.39;73.55
818;BME280;391;51.052;6.954;2023-01-28T01:18:55;102077.75;;;4.37;73.60
818;BME280;391;51.052;6.954;2023-01-28T01:21:00;102099.75;;;4.32;73.25
818;BME280;391;51.052;6.954;2023-01-28T01:23:04;102088.28;;;4.28;72.96
818;BME280;391;51.052;6.954;2023-01-28T01:25:11;102049.41;;;4.04;73.45
818;BME280;391;51.052;6.954;2023-01-28T01:27:15;102096.13;;;4.18;73.50
818;BME280;391;51.052;6.954;2023-01-28T01:29:18;102096.94;;;4.17;73.67
818;BME280;391;51.052;6.954;2023-01-28T01:31:22;102089.19;;;4.17;73.72
818;BME280;391;51.052;6.954;2023-01-28T01:33:27;102088.16;;;4.15;72.94
818;BME280;391;51.052;6.954;2023-01-28T01:35:32;102091.19;;;4.21;73.48
818;BME280;391;51.052;6.954;2023-01-28T01:37:36;102092.09;;;4.22;73.39
818;BME280;391;51.052;6.954;2023-01-28T01:39:39;102086.84;;;4.20;74.03
818;BME280;391;51.052;6.954;2023-01-28T01:41:44;102084.03;;;4.17;73.26
818;BME280;391;51.052;6.954;2023-01-28T01:43:48;102080.06;;;4.11;73.73
818;BME280;391;51.052;6.954;2023-01-28T01:45:55;102080.84;;;4.10;74.00
818;BME280;391;51.052;6.954;2023-01-28T01:48:04;102075.59;;;4.08;73.98
818;BME280;391;51.052;6.954;2023-01-28T01:50:15;102061.66;;;4.06;73.81
818;BME280;391;51.052;6.954;2023-01-28T01:52:25;102071.44;;;4.10;74.86
818;BME280;391;51.052;6.954;2023-01-28T01:54:31;102085.09;;;4.09;74.17
818;BME280;391;51.052;6.954;2023-01-28T01:56:40;101994.53;;;3.50;74.31
818;BME280;391;51.052;6.954;2023-01-28T01:58:49;102089.09;;;3.94;73.84
818;BME280;391;51.052;6.954;2023-01-28T02:00:56;102094.47;;;3.86;74.62
818;BME280;391;51.052;6.954;2023-01-28T02:03:00;102082.56;;;3.88;74.59
818;BME280;391;51.052;6.954;2023-01-28T02:05:04;102045.06;;;3.69;74.97
818;BME280;391;51.052;6.954;2023-01-28T02:07:10;102081.13;;;3.91;74.58
818;BME280;391;51.052;6.954;2023-01-28T02:09:22;102078.56;;;3.91;74.48
818;BME280;391;51.052;6.954;2023-01-28T02:11:28;102087.97;;;3.91;74.45
818;BME280;391;51.052;6.954;2023-01-28T02:13:36;102102.06;;;3.84;74.60
818;BME280;391;51.052;6.954;2023-01-28T02:15:43;102096.91;;;3.84;74.93
818;BME280;391;51.052;6.954;2023-01-28T02:17:49;102102.75;;;3.82;75.05
818;BME280;391;51.052;6.954;2023-01-28T02:19:55;102097.09;;;3.76;74.25
818;BME280;391;51.052;6.954;2023-01-28T02:22:14;102098.25;;;3.79;74.89
818;BME280;391;51.052;6.954;2023-01-28T02:24:44;102095.31;;;3.74;75.31
818;BME280;391;51.052;6.954;2023-01-28T02:27:03;102096.31;;;3.77;75.17
818;BME280;391;51.052;6.954;2023-01-28T02:29:14;102102.56;;;3.68;74.69
818;BME280;391;51.052;6.954;2023-01-28T02:31:22;102102.75;;;3.60;75.27
818;BME280;391;51.052;6.954;2023-01-28T02:33:32;102106.88;;;3.58;75.74
818;BME280;391;51.052;6.954;2023-01-28T02:35:41;102097.41;;;3.47;75.53
818;BME280;391;51.052;6.954;2023-01-28T02:37:52;102104.34;;;3.48;75.32
818;BME280;391;51.052;6.954;2023-01-28T02:40:01;102056.06;;;3.13;75.97
818;BME280;391;51.052;6.954;2023-01-28T02:42:09;102104.53;;;3.39;76.14
818;BME280;391;51.052;6.954;2023-01-28T02:44:16;102100.03;;;3.37;76.54
818;BME280;391;51.052;6.954;2023-01-28T02:46:31;102105.19;;;3.37;76.75
818;BME280;391;51.052;6.954;2023-01-28T02:48:52;102104.72;;;3.31;76.59
818;BME280;391;51.052;6.954;2023-01-28T02:51:00;102113.34;;;3.31;76.33
818;BME280;391;51.052;6.954;2023-01-28T02:53:15;102112.97;;;3.27;76.52
818;BME280;391;51.052;6.954;2023-01-28T02:55:42;102112.47;;;3.20;77.05
818;BME280;391;51.052;6.954;2023-01-28T02:57:57;102123.94;;;3.24;76.77
818;BME280;391;51.052;6.954;2023-01-28T03:00:09;102124.44;;;3.30;76.92
818;BME280;391;51.052;6.954;2023-01-28T03:02:18;102122.09;;;3.33;77.61
818;BME280;391;51.052;6.954;2023-01-28T03:04:28;102120.53;;;3.35;76.89
818;BME280;391;51.052;6.954;2023-01-28T03:06:38;102126.53;;;3.46;77.66
818;BME280;391;51.052;6.954;2023-01-28T03:08:46;102131.34;;;3.41;77.08
818;BME280;391;51.052;6.954;2023-01-28T03:11:07;102130.53;;;3.42;76.94
818;BME280;391;51.052;6.954;2023-01-28T03:13:28;102138.03;;;3.39;77.38
818;BME280;391;51.052;6.954;2023-01-28T03:15:51;102130.19;;;3.38;77.09
818;BME280;391;51.052;6.954;2023-01-28T03:18:15;102125.97;;;3.38;77.76
818;BME280;391;51.052;6.954;2023-01-28T03:20:50;102128.53;;;3.38;77.53
818;BME280;391;51.052;6.954;2023-01-28T03:23:19;102124.97;;;3.48;77.81
818;BME280;391;51.052;6.954;2023-01-28T03:25:44;102124.72;;;3.45;77.69
818;BME280;391;51.052;6.954;2023-01-28T03:28:10;102126.13;;;3.51;77.41
818;BME280;391;51.052;6.954;2023-01-28T03:30:38;102132.59;;;3.46;77.62
818;BME280;391;51.052;6.954;2023-01-28T03:33:14;102016.03;;;2.85;77.42
818;BME280;391;51.052;6.954;2023-01-28T03:35:37;102132.19;;;3.52;77.82
818;BME280;391;51.052;6.954;2023-01-28T03:38:00;102123.91;;;3.56;77.94
818;BME280;391;51.052;6.954;2023-01-28T03:40:19;102125.81;;;3.58;77.39
818;BME280;391;51.052;6.954;2023-01-28T03:42:22;102130.22;;;3.59;77.20
818;BME280;391;51.052;6.954;2023-01-28T03:44:32;102126.88;;;3.60;76.90
818;BME280;391;51.052;6.954;2023-01-28T03:46:51;102125.47;;;3.54;77.35
818;BME280;391;51.052;6.954;2023-01-28T03:48:56;102132.25;;;3.63;77.39
818;BME280;391;51.052;6.954;2023-01-28T03:51:00;102124.16;;;3.59;76.91
818;BME280;391;51.052;6.954;2023-01-28T03:53:04;102133.94;;;3.63;77.86
818;BME280;391;51.052;6.954;2023-01-28T03:55:25;102119.13;;;3.60;77.88
818;BME280;391;51.052;6.954;2023-01-28T03:57:28;102130.69;;;3.65;76.59
818;BME280;391;51.052;6.954;2023-01-28T03:59:33;102133.13;;;3.64;77.60
818;BME280;391;51.052;6.954;2023-01-28T04:01:37;102134.72;;;3.62;76.71
818;BME280;391;51.052;6.954;2023-01-28T04:03:40;102142.69;;;3.65;76.33
818;BME280;391;51.052;6.954;2023-01-28T04:05:58;102014.66;;;3.00;77.00
818;BME280;391;51.052;6.954;2023-01-28T04:08:16;102144.91;;;3.82;76.49
818;BME280;391;51.052;6.954;2023-01-28T04:10:31;102142.34;;;3.82;76.80
818;BME280;391;51.052;6.954;2023-01-28T04:12:58;102150.31;;;3.85;76.18
818;BME280;391;51.052;6.954;2023-01-28T04:15:03;102140.91;;;3.86;75.76
818;BME280;391;51.052;6.954;2023-01-28T04:17:19;102148.75;;;3.87;76.47
818;BME280;391;51.052;6.954;2023-01-28T04:19:24;102140.34;;;3.90;75.89
818;BME280;391;51.052;6.954;2023-01-28T04:21:31;102156.28;;;3.96;75.34
818;BME280;391;51.052;6.954;2023-01-28T04:23:36;102154.06;;;4.00;75.92
818;BME280;391;51.052;6.954;2023-01-28T04:25:41;102157.13;;;4.06;76.01
818;BME280;391;51.052;6.954;2023-01-28T04:27:45;102163.66;;;4.13;76.03
818;BME280;391;51.052;6.954;2023-01-28T04:29:52;102160.41;;;4.15;75.41
818;BME280;391;51.052;6.954;2023-01-28T04:32:10;102148.84;;;4.10;75.22
818;BME280;391;51.052;6.954;2023-01-28T04:34:34;102161.44;;;4.17;75.47
818;BME280;391;51.052;6.954;2023-01-28T04:36:54;102165.25;;;4.22;74.99
818;BME280;391;51.052;6.954;2023-01-28T04:38:57;102163.44;;;4.21;74.95
818;BME280;391;51.052;6.954;2023-01-28T04:41:20;102171.19;;;4.21;75.56
818;BME280;391;51.052;6.954;2023-01-28T04:43:24;102161.22;;;4.14;74.03
818;BME280;391;51.052;6.954;2023-01-28T04:45:47;102167.75;;;4.21;74.62
818;BME280;391;51.052;6.954;2023-01-28T04:48:14;102175.06;;;4.26;74.39
818;BME280;391;51.052;6.954;2023-01-28T04:50:25;102190.63;;;4.28;74.30
818;BME280;391;51.052;6.954;2023-01-28T04:52:43;102188.50;;;4.22;74.44
818;BME280;391;51.052;6.954;2023-01-28T04:55:02;102183.09;;;4.19;74.34
818;BME280;391;51.052;6.954;2023-01-28T04:57:06;102187.50;;;4.20;73.90
818;BME280;391;51.052;6.954;2023-01-28T04:59:10;102176.22;;;4.08;74.38
818;BME280;391;51.052;6.954;2023-01-28T05:01:13;102183.16;;;4.09;74.28
818;BME280;391;51.052;6.954;2023-01-28T05:03:17;102173.75;;;4.10;74.21
818;BME280;391;51.052;6.954;2023-01-28T05:05:21;102174.88;;;4.13;74.00
818;BME280;391;51.052;6.954;2023-01-28T05:07:31;102165.25;;;4.11;74.24
818;BME280;391;51.052;6.954;2023-01-28T05:09:36;102178.31;;;4.24;74.18
818;BME280;391;51.052;6.954;2023-01-28T05:11:40;102187.06;;;4.26;74.09
818;BME280;391;51.052;6.954;2023-01-28T05:13:43;102182.78;;;4.26;74.26
818;BME280;391;51.052;6.954;2023-01-28T05:15:52;102183.47;;;4.24;74.07
818;BME280;391;51.052;6.954;2023-01-28T05:17:56;102171.63;;;4.16;73.49
818;BME280;391;51.052;6.954;2023-01-28T05:20:01;102162.19;;;4.05;74.40
818;BME280;391;51.052;6.954;2023-01-28T05:22:05;102077.56;;;3.46;74.69
818;BME280;391;51.052;6.954;2023-01-28T05:24:16;102190.97;;;3.99;74.09
818;BME280;391;51.052;6.954;2023-01-28T05:26:21;102173.13;;;4.02;74.99
818;BME280;391;51.052;6.954;2023-01-28T05:28:25;102173.72;;;3.98;74.38
818;BME280;391;51.052;6.954;2023-01-28T05:30:28;102072.59;;;3.37;74.01
818;BME280;391;51.052;6.954;2023-01-28T05:32:32;102178.19;;;4.01;74.61
818;BME280;391;51.052;6.954;2023-01-28T05:34:35;102175.25;;;3.96;74.11
818;BME280;391;51.052;6.954;2023-01-28T05:36:44;102175.25;;;3.96;74.02
818;BME280;391;51.052;6.954;2023-01-28T05:39:09;102170.22;;;3.98;74.52
818;BME280;391;51.052;6.954;2023-01-28T05:41:13;102179.56;;;4.07;74.20
818;BME280;391;51.052;6.954;2023-01-28T05:43:20;102135.75;;;3.86;73.16
818;BME280;391;51.052;6.954;2023-01-28T05:45:37;102178.44;;;4.04;74.54
818;BME280;391;51.052;6.954;2023-01-28T05:47:45;102179.78;;;3.99;73.71
818;BME280;391;51.052;6.954;2023-01-28T05:50:12;102181.53;;;4.00;73.41
818;BME280;391;51.052;6.954;2023-01-28T05:52:42;102176.81;;;3.94;73.78
818;BME280;391;51.052;6.954;2023-01-28T05:54:54;102180.16;;;3.93;74.00
818;BME280;391;51.052;6.954;2023-01-28T05:56:58;102194.97;;;3.96;73.13
818;BME280;391;51.052;6.954;2023-01-28T05:59:05;102196.13;;;3.99;73.49
818;BME280;391;51.052;6.954;2023-01-28T06:01:09;102195.88;;;3.96;73.25
818;BME280;391;51.052;6.954;2023-01-28T06:03:23;102172.38;;;3.82;73.37
818;BME280;391;51.052;6.954;2023-01-28T06:05:27;102204.66;;;3.98;72.95
818;BME280;391;51.052;6.954;2023-01-28T06:07:31;102206.22;;;3.96;72.59
818;BME280;391;51.052;6.954;2023-01-28T06:09:34;102214.50;;;3.92;72.51
818;BME280;391;51.052;6.954;2023-01-28T06:11:38;102211.69;;;3.89;72.56
818;BME280;391;51.052;6.954;2023-01-28T06:13:41;102208.44;;;3.92;72.95
818;BME280;391;51.052;6.954;2023-01-28T06:16:07;102205.19;;;3.94;72.39
818;BME280;391;51.052;6.954;2023-01-28T06:18:16;102201.84;;;3.95;72.17
818;BME280;391;51.052;6.954;2023-01-28T06:20:19;102176.03;;;3.73;71.90
818;BME280;391;51.052;6.954;2023-01-28T06:22:25;102179.41;;;3.72;71.74
818;BME280;391;51.052;6.954;2023-01-28T06:24:28;102208.50;;;3.82;72.28
818;BME280;391;51.052;6.954;2023-01-28T06:26:32;102210.31;;;3.83;72.55
818;BME280;391;51.052;6.954;2023-01-28T06:28:35;102218.63;;;3.90;72.03
818;BME280;391;51.052;6.954;2023-01-28T06:30:39;102209.13;;;3.89;71.96
818;BME280;391;51.052;6.954;2023-01-28T06:32:44;102210.66;;;3.87;71.38
818;BME280;391;51.052;6.954;2023-01-28T06:34:47;102217.63;;;3.88;71.54
818;BME280;391;51.052;6.954;2023-01-28T06:36:50;102214.66;;;3.84;72.03
818;BME280;391;51.052;6.954;2023-01-28T06:38:54;102214.66;;;3.84;71.46
818;BME280;391;51.052;6.954;2023-01-28T06:40:58;102215.56;;;3.84;71.60
818;BME280;391;51.052;6.954;2023-01-28T06:43:01;102202.72;;;3.74;70.76
818;BME280;391;51.052;6.954;2023-01-28T06:45:06;102207.41;;;3.68;70.35
818;BME280;391;51.052;6.954;2023-01-28T06:47:09;102214.47;;;3.70;71.19
818;BME280;391;51.052;6.954;2023-01-28T06:49:14;102206.34;;;3.76;70.57
818;BME280;391;51.052;6.954;2023-01-28T06:51:18;102108.91;;;3.18;70.76
818;BME280;391;51.052;6.954;2023-01-28T06:53:22;102204.53;;;3.75;70.83
818;BME280;391;51.052;6.954;2023-01-28T06:55:25;102219.78;;;3.94;71.45
818;BME280;391;51.052;6.954;2023-01-28T06:57:29;102212.81;;;3.93;71.13
818;BME280;391;51.052;6.954;2023-01-28T06:59:32;102225.47;;;3.90;70.83
818;BME280;391;51.052;6.954;2023-01-28T07:01:36;102229.00;;;3.80;70.01
818;BME280;391;51.052;6.954;2023-01-28T07:03:40;102231.47;;;3.79;70.78
818;BME280;391;51.052;6.954;2023-01-28T07:05:44;102226.31;;;3.79;70.53
818;BME280;391;51.052;6.954;2023-01-28T07:07:49;102106.78;;;3.03;70.05
818;BME280;391;51.052;6.954;2023-01-28T07:09:52;102232.00;;;3.74;69.96
818;BME280;391;51.052;6.954;2023-01-28T07:11:56;102232.91;;;3.75;69.78
818;BME280;391;51.052;6.954;2023-01-28T07:13:59;102235.47;;;3.75;70.08
818;BME280;391;51.052;6.954;2023-01-28T07:16:03;102224.00;;;3.71;70.21
818;BME280;391;51.052;6.954;2023-01-28T07:18:07;102238.59;;;3.71;70.01
818;BME280;391;51.052;6.954;2023-01-28T07:20:12;102231.25;;;3.65;69.92
818;BME280;391;51.052;6.954;2023-01-28T07:22:18;102225.97;;;3.64;69.52
818;BME280;391;51.052;6.954;2023-01-28T07:24:22;102225.59;;;3.69;69.78
818;BME280;391;51.052;6.954;2023-01-28T07:26:25;102222.81;;;3.78;70.38
818;BME280;391;51.052;6.954;2023-01-28T07:28:29;102221.63;;;3.85;69.51
818;BME280;391;51.052;6.954;2023-01-28T07:30:32;102127.63;;;3.38;69.38
818;BME280;391;51.052;6.954;2023-01-28T07:32:36;102235.38;;;3.95;68.60
818;BME280;391;51.052;6.954;2023-01-28T07:34:39;102229.63;;;3.88;68.46
818;BME280;391;51.052;6.954;2023-01-28T07:36:44;102220.19;;;3.88;68.58
818;BME280;391;51.052;6.954;2023-01-28T07:38:49;102206.81;;;3.82;68.63
818;BME280;391;51.052;6.954;2023-01-28T07:40:52;102218.56;;;4.00;68.94
818;BME280;391;51.052;6.954;2023-01-28T07:42:56;102225.66;;;4.03;68.34
818;BME280;391;51.052;6.954;2023-01-28T07:45:01;102226.03;;;4.07;69.26
818;BME280;391;51.052;6.954;2023-01-28T07:47:06;102214.19;;;3.99;67.59
818;BME280;391;51.052;6.954;2023-01-28T07:49:09;102220.97;;;3.87;67.97
818;BME280;391;51.052;6.954;2023-01-28T07:51:13;102224.63;;;3.79;68.25
818;BME280;391;51.052;6.954;2023-01-28T07:53:16;102230.94;;;3.83;67.29
818;BME280;391;51.052;6.954;2023-01-28T07:55:22;102229.63;;;3.88;67.88
818;BME280;391;51.052;6.954;2023-01-28T07:57:26;102086.00;;;3.11;68.12
818;BME280;391;51.052;6.954;2023-01-28T07:59:31;102228.00;;;4.00;67.20
818;BME280;391;51.052;6.954;2023-01-28T08:01:35;102237.53;;;4.01;67.40
818;BME280;391;51.052;6.954;2023-01-28T08:03:38;102242.81;;;4.02;67.52
818;BME280;391;51.052;6.954;2023-01-28T08:05:45;102231.03;;;3.84;67.53
818;BME280;391;51.052;6.954;2023-01-28T08:07:49;102240.31;;;4.69;84.91
818;BME280;391;51.052;6.954;2023-01-28T08:09:53;102249.50;;;5.22;75.23
818;BME280;391;51.052;6.954;2023-01-28T08:11:57;102255.09;;;5.05;73.42
818;BME280;391;51.052;6.954;2023-01-28T08:14:01;102260.00;;;4.78;72.08
818;BME280;391;51.052;6.954;2023-01-28T08:16:05;102263.88;;;4.62;71.85
818;BME280;391;51.052;6.954;2023-01-28T08:18:10;102265.84;;;4.54;71.26
818;BME280;391;51.052;6.954;2023-01-28T08:20:15;102266.53;;;4.52;70.99
818;BME280;391;51.052;6.954;2023-01-28T08:22:23;102262.16;;;4.29;70.35
818;BME280;391;51.052;6.954;2023-01-28T08:24:27;102271.81;;;4.10;69.98
818;BME280;391;51.052;6.954;2023-01-28T08:26:31;102267.81;;;4.13;70.02
818;BME280;391;51.052;6.954;2023-01-28T08:28:36;102264.03;;;4.20;69.53
818;BME280;391;51.052;6.954;2023-01-28T08:30:39;102266.59;;;4.20;69.42
818;BME280;391;51.052;6.954;2023-01-28T08:32:43;102291.22;;;4.05;69.14
818;BME280;391;51.052;6.954;2023-01-28T08:34:47;102283.59;;;3.96;69.32
818;BME280;391;51.052;6.954;2023-01-28T08:36:50;102278.22;;;3.93;69.50
818;BME280;391;51.052;6.954;2023-01-28T08:38:54;102260.72;;;3.89;68.91
818;BME280;391;51.052;6.954;2023-01-28T08:40:57;102273.66;;;4.01;68.42
818;BME280;391;51.052;6.954;2023-01-28T08:43:01;102277.44;;;3.94;68.38
818;BME280;391;51.052;6.954;2023-01-28T08:45:07;102284.16;;;3.92;68.34
818;BME280;391;51.052;6.954;2023-01-28T08:47:11;102288.41;;;3.92;67.08
818;BME280;391;51.052;6.954;2023-01-28T08:49:15;102291.91;;;3.92;67.13
818;BME280;391;51.052;6.954;2023-01-28T08:51:18;102289.91;;;4.00;67.98
818;BME280;391;51.052;6.954;2023-01-28T08:53:21;102281.16;;;3.98;67.71
818;BME280;391;51.052;6.954;2023-01-28T08:55:26;102302.06;;;4.01;67.24
818;BME280;391;51.052;6.954;2023-01-28T08:57:29;102300.41;;;3.91;67.14
818;BME280;391;51.052;6.954;2023-01-28T08:59:33;102287.06;;;3.75;66.50
818;BME280;391;51.052;6.954;2023-01-28T09:01:38;102297.13;;;3.72;66.28
818;BME280;391;51.052;6.954;2023-01-28T09:03:41;102298.31;;;3.65;66.82
818;BME280;391;51.052;6.954;2023-01-28T09:05:45;102299.75;;;3.62;66.45
818;BME280;391;51.052;6.954;2023-01-28T09:07:50;102308.53;;;3.54;65.66
818;BME280;391;51.052;6.954;2023-01-28T09:09:54;102305.97;;;3.54;66.23
818;BME280;391;51.052;6.954;2023-01-28T09:11:57;102300.50;;;3.61;65.60
818;BME280;391;51.052;6.954;2023-01-28T09:14:01;102308.66;;;3.55;65.59
818;BME280;391;51.052;6.954;2023-01-28T09:16:05;102312.78;;;3.63;65.63
818;BME280;391;51.052;6.954;2023-01-28T09:18:10;102323.56;;;3.80;65.78
818;BME280;391;51.052;6.954;2023-01-28T09:20:14;102326.22;;;3.91;65.40
818;BME280;391;51.052;6.954;2023-01-28T09:22:18;102338.03;;;3.99;65.78
818;BME280;391;51.052;6.954;2023-01-28T09:24:22;102345.78;;;3.99;64.71
818;BME280;391;51.052;6.954;2023-01-28T09:26:26;102235.38;;;3.32;64.89
818;BME280;391;51.052;6.954;2023-01-28T09:28:29;102307.94;;;3.78;65.06
818;BME280;391;51.052;6.954;2023-01-28T09:30:33;102359.34;;;3.97;64.52
818;BME280;391;51.052;6.954;2023-01-28T09:32:39;102353.03;;;3.93;65.02
818;BME280;391;51.052;6.954;2023-01-28T09:34:44;102350.34;;;3.92;65.07
818;BME280;391;51.052;6.954;2023-01-28T09:36:48;102353.31;;;3.86;63.99
818;BME280;391;51.052;6.954;2023-01-28T09:38:51;102350.78;;;3.76;64.30
818;BME280;391;51.052;6.954;2023-01-28T09:40:55;102350.13;;;3.68;64.96
818;BME280;391;51.052;6.954;2023-01-28T09:45:32;102371.44;;;3.56;65.16
818;BME280;391;51.052;6.954;2023-01-28T09:47:42;102365.00;;;3.51;65.09
818;BME280;391;51.052;6.954;2023-01-28T09:49:50;102370.53;;;3.45;65.02
818;BME280;391;51.052;6.954;2023-01-28T09:51:55;102379.97;;;3.35;65.06
818;BME280;391;51.052;6.954;2023-01-28T09:54:02;102358.31;;;3.22;65.22
818;BME280;391;51.052;6.954;2023-01-28T09:56:12;102347.88;;;3.11;65.97
818;BME280;391;51.052;6.954;2023-01-28T09:58:17;102369.41;;;3.22;65.85
818;BME280;391;51.052;6.954;2023-01-28T10:00:23;102371.34;;;3.34;66.45
818;BME280;391;51.052;6.954;2023-01-28T10:02:36;102363.72;;;3.46;65.41
818;BME280;391;51.052;6.954;2023-01-28T10:04:54;102356.63;;;3.33;65.10
818;BME280;391;51.052;6.954;2023-01-28T10:07:14;102358.19;;;3.31;65.67
818;BME280;391;51.052;6.954;2023-01-28T10:09:31;102371.84;;;3.40;65.41
818;BME280;391;51.052;6.954;2023-01-28T10:11:46;102375.59;;;3.44;65.33
818;BME280;391;51.052;6.954;2023-01-28T10:13:58;102365.53;;;3.37;64.33
818;BME280;391;51.052;6.954;2023-01-28T10:16:11;102352.13;;;3.41;65.26
818;BME280;391;51.052;6.954;2023-01-28T10:18:24;102369.25;;;3.50;64.89
818;BME280;391;51.052;6.954;2023-01-28T10:20:36;102367.31;;;3.48;64.28
818;BME280;391;51.052;6.954;2023-01-28T10:22:45;102372.59;;;3.49;64.51
818;BME280;391;51.052;6.954;2023-01-28T10:24:54;102367.97;;;3.45;63.96
818;BME280;391;51.052;6.954;2023-01-28T10:26:59;102372.88;;;3.42;64.19
818;BME280;391;51.052;6.954;2023-01-28T10:29:12;102364.22;;;3.52;64.19
818;BME280;391;51.052;6.954;2023-01-28T10:31:18;102361.28;;;3.47;63.37
818;BME280;391;51.052;6.954;2023-01-28T10:33:28;102360.63;;;3.50;63.83
818;BME280;391;51.052;6.954;2023-01-28T10:35:37;102382.78;;;3.48;63.48
818;BME280;391;51.052;6.954;2023-01-28T10:37:41;102371.19;;;3.43;63.81
818;BME280;391;51.052;6.954;2023-01-28T10:39:45;102369.88;;;3.48;63.60
818;BME280;391;51.052;6.954;2023-01-28T10:41:49;102366.03;;;3.53;63.58
818;BME280;391;51.052;6.954;2023-01-28T10:43:59;102370.94;;;3.50;63.39
818;BME280;391;51.052;6.954;2023-01-28T10:46:06;102367.94;;;3.55;63.89
818;BME280;391;51.052;6.954;2023-01-28T10:48:16;102362.94;;;3.57;63.60
818;BME280;391;51.052;6.954;2023-01-28T10:50:26;102365.13;;;3.62;63.32
818;BME280;391;51.052;6.954;2023-01-28T10:52:33;102352.38;;;3.54;62.31
818;BME280;391;51.052;6.954;2023-01-28T10:54:36;102360.47;;;3.58;63.42
818;BME280;391;51.052;6.954;2023-01-28T10:56:42;102353.38;;;3.66;63.13
818;BME280;391;51.052;6.954;2023-01-28T10:58:59;102355.16;;;3.67;63.11
818;BME280;391;51.052;6.954;2023-01-28T11:01:05;102371.16;;;3.73;62.37
818;BME280;391;51.052;6.954;2023-01-28T11:03:16;102372.16;;;3.85;63.21
818;BME280;391;51.052;6.954;2023-01-28T11:05:22;102372.41;;;3.88;62.29
818;BME280;391;51.052;6.954;2023-01-28T11:07:28;102364.53;;;3.87;62.47
818;BME280;391;51.052;6.954;2023-01-28T11:09:35;102364.94;;;3.81;61.82
818;BME280;391;51.052;6.954;2023-01-28T11:11:39;102294.78;;;3.33;62.28
818;BME280;391;51.052;6.954;2023-01-28T11:13:49;102364.31;;;3.73;62.26
818;BME280;391;51.052;6.954;2023-01-28T11:15:56;102367.78;;;3.74;61.99
818;BME280;391;51.052;6.954;2023-01-28T11:18:04;102362.78;;;3.76;62.41
818;BME280;391;51.052;6.954;2023-01-28T11:20:18;102375.41;;;3.83;62.52
818;BME280;391;51.052;6.954;2023-01-28T11:22:28;102371.50;;;3.88;62.41
818;BME280;391;51.052;6.954;2023-01-28T11:24:36;102366.97;;;3.95;62.94
818;BME280;391;51.052;6.954;2023-01-28T11:26:44;102363.72;;;4.08;63.29
818;BME280;391;51.052;6.954;2023-01-28T11:28:51;102361.13;;;4.08;62.29
818;BME280;391;51.052;6.954;2023-01-28T11:30:57;102363.56;;;4.06;62.16
818;BME280;391;51.052;6.954;2023-01-28T11:33:06;102371.59;;;3.99;61.86
818;BME280;391;51.052;6.954;2023-01-28T11:35:24;102369.69;;;3.87;62.16
818;BME280;391;51.052;6.954;2023-01-28T11:37:29;102374.31;;;3.91;62.57
818;BME280;391;51.052;6.954;2023-01-28T11:39:33;102380.75;;;3.96;61.64
818;BME280;391;51.052;6.954;2023-01-28T11:41:38;102383.31;;;3.96;61.44
818;BME280;391;51.052;6.954;2023-01-28T11:43:42;102376.94;;;3.81;61.60
818;BME280;391;51.052;6.954;2023-01-28T11:45:55;102377.09;;;3.72;62.05
818;BME280;391;51.052;6.954;2023-01-28T11:48:16;102385.09;;;3.55;62.18
818;BME280;391;51.052;6.954;2023-01-28T11:50:32;102382.25;;;3.52;62.38
818;BME280;391;51.052;6.954;2023-01-28T11:52:49;102379.84;;;3.53;62.48
818;BME280;391;51.052;6.954;2023-01-28T11:55:20;102377.91;;;3.51;61.99
818;BME280;391;51.052;6.954;2023-01-28T11:57:32;102386.00;;;3.45;61.32